Hlavní strana
METAR-TAF:

METAR-TAF

Letiště :

Brjansk, Rusko

zeměpisná šířka: 53-15N, zeměpisná délka: 034-19E, výška: 217 m

Aktuální stav počasí

Zpráva byla vytvořena před 20 minutami, v 13:30 UTC
Severní vítr 2 kt
Teplota 1°C
Vlhkost vzduchu 93%
Tlak 1016 hPa
Viditelnost: 5000 m
Oblačno až skoro zataženo ve výšce 600 ft
Zataženo ve výšce 1700 ft, Cumulonimbus.
kouřmo

METAR: UUBP 251330Z 36001MPS 5000 BR BKN006 OVC017CB 01/00 Q1016 R34/290150 NOSIG RMK QFE745/0993

Čas: 16:50 (13:50 UTC)

Předpověď počasí

Zpráva byla vytvořena před 2 hodinami a 50 minutami, v 11:00 UTC
Předpověď platná od 25 v 12 UTC do 25 v 21 UTC
vítr z různých směrů 2 kt
Viditelnost: 6000 m
Oblačno až skoro zataženo ve výšce 1200 ft
Dočasný
od 25 v 12 UTC do 25 v 14 UTC
Viditelnost: 3100 m
Oblačno až skoro zataženo ve výšce 400 ft
Oblačno až skoro zataženo ve výšce 1300 ft, Cumulonimbus.
slabé sněhové přeháňky, déšť

TAF: UUBP 251100Z 2512/2521 VRB01MPS 6000 BKN012 TEMPO 2512/2514 3100 -SHSNRA BKN004 BKN013CB

Stav a předpovědi počasí z více než 4 000 letišť (zprávy METAR a TAF).

Červené a žluté tečky na mapě představují dostupné meteorologické stanice.

Když kurzor umístíte na tečku, zobrazí se název stanice.

Pak kliknutím zobrazíte stav a předpověď počasí.

Chcete-li změnit mapu, kliknutím na zelené tlačítko se znaménkem +mapu přiblížíte, kliknutím na zelené tlačítko se znaménkem – mapu oddálíte a kliknutím na zelené šipky přejdete na sousední mapy.


METAR-TAF: